Huvudsida
METAR-TAF:

METAR-TAF

Flygplatser :

Isfahan International Airport

Esfahan, Iran

latitud: 32-28N, longitud: 051-43E, höjd: 1590 m

Aktuellt väderrapport

Denna rapport gjordes för 30 minuter sedan, klockan 10:00 UTC
Vind 4 kt från syd/sydväst
Temperatur 30°C
Fuktighet 13%
Tryck 1022 hPa
Sikt 10 km eller mer
Inga moln under 1 500 m eller inga cumulonimbus

METAR: OIFM 151000Z 20004KT CAVOK 30/M01 Q1021 A3017

Tid: 15:00 (10:30 UTC)

Väderprognos

Denna rapport gjordes för 5 timmar och 0 minuter sedan, klockan 05:30 UTC
Prognos gäller från 15 kl. 06 UTC till 16 kl. 12 UTC
Vind 6 kt från ost
Sikt: 7000 m
Temporärt
från 15 kl. 15 UTC till 15 kl. 18 UTC
Vind 16 kt från nordost
Temporärt
från 16 kl. 01 UTC till 16 kl. 06 UTC
Sikt: 5000 m
torrdis

TAF: OIFM 150530Z 1506/1612 10006KT 7000 NSC TEMPO 1515/1518 04016KT TEMPO 1601/1606 5000 HZ

Aktuella väderrapporter och prognoser från 4000 flygplatser (METAR- och TAF-rapporter).

De tillgängliga stationerna syns som gula och röda prickar på kartan.

För musen över prickarna för att se namnen på stationerna.

Klicka sedan för att få väderrapporter och prognoser.

För att ändra kartan: Klicka på de gröna knapparna med ett svart kors på för att zooma in; den gröna knappen med ett streck på för att zooma ut; eller på de gröna pilarna för angränsande kartor.


METAR-TAF: